Time;durP1;ratioP1;P1;durP2;ratioP2;P2;SDS_P1;SDS_P2;PMS_P1;PMS_P2;Temp;Humidity;BMP_temperature;BMP_pressure;BME280_temperature;BME280_humidity;BME280_pressure;Samples;Min_cycle;Max_cycle;Signal;HPM_P1;HPM_P2
2021/11/01 00:02:18;;;;;;;18.08;14.88;;;17.10;96.70;;;;;;5077670;28;20046;-86
2021/11/01 00:04:47;;;;;;;19.50;15.18;;;17.10;96.70;;;;;;5077845;28;20101;-80
2021/11/01 00:07:15;;;;;;;17.05;14.52;;;17.00;96.70;;;;;;5082929;28;20032;-80
2021/11/01 00:09:43;;;;;;;20.08;14.98;;;17.00;96.70;;;;;;5063474;28;20044;-80
2021/11/01 00:12:29;;;;;;;17.20;15.38;;;17.00;96.70;;;;;;5043022;28;20555;-80
2021/11/01 00:14:57;;;;;;;21.80;16.02;;;17.00;96.70;;;;;;5021308;28;20155;-80
2021/11/01 00:17:26;;;;;;;21.00;16.08;;;16.90;96.70;;;;;;5040960;28;20542;-80
2021/11/01 00:19:55;;;;;;;19.15;15.20;;;16.90;96.70;;;;;;5040377;28;20412;-80
2021/11/01 00:22:24;;;;;;;20.13;15.98;;;16.90;96.70;;;;;;5040760;28;20049;-80
2021/11/01 00:24:52;;;;;;;19.60;15.48;;;16.80;96.70;;;;;;5034201;28;20627;-80
2021/11/01 00:27:20;;;;;;;19.70;16.33;;;16.80;96.70;;;;;;5053709;28;20174;-80
2021/11/01 00:29:50;;;;;;;19.08;15.63;;;16.80;96.70;;;;;;5038689;28;20465;-80
2021/11/01 00:32:18;;;;;;;19.08;15.10;;;16.70;96.70;;;;;;5054830;28;20556;-80
2021/11/01 00:34:47;;;;;;;18.95;15.95;;;16.60;96.70;;;;;;5023679;28;20555;-79
2021/11/01 00:37:15;;;;;;;16.95;14.25;;;16.60;96.70;;;;;;5034751;28;20057;-80
2021/11/01 00:39:43;;;;;;;17.85;15.63;;;16.50;96.70;;;;;;5056938;28;20052;-80
2021/11/01 00:42:11;;;;;;;19.75;15.80;;;16.60;96.70;;;;;;5038898;28;20036;-81
2021/11/01 00:44:40;;;;;;;18.70;15.25;;;16.60;96.70;;;;;;5038031;28;20045;-81
2021/11/01 00:47:12;;;;;;;17.80;14.45;;;16.60;96.70;;;;;;5041271;28;20131;-81
2021/11/01 00:49:41;;;;;;;18.40;15.63;;;16.60;96.70;;;;;;5051102;28;20049;-82
2021/11/01 00:52:09;;;;;;;20.13;15.35;;;16.50;96.70;;;;;;5063358;28;20556;-82
2021/11/01 00:54:39;;;;;;;18.02;15.38;;;16.50;96.70;;;;;;5060440;28;20546;-81
2021/11/01 00:57:08;;;;;;;21.67;15.93;;;16.40;96.70;;;;;;5062957;28;20491;-81
2021/11/01 00:59:36;;;;;;;17.55;15.05;;;16.50;96.70;;;;;;5075406;28;20127;-82
2021/11/01 01:02:04;;;;;;;18.35;15.93;;;16.50;96.70;;;;;;5081095;28;20063;-82
2021/11/01 01:04:35;;;;;;;20.60;16.63;;;16.60;96.70;;;;;;5078473;28;20071;-81
2021/11/01 01:07:06;;;;;;;20.25;16.10;;;16.50;96.70;;;;;;5077276;28;20405;-81
2021/11/01 01:09:34;;;;;;;17.95;15.73;;;16.60;96.70;;;;;;5063957;28;20408;-82
2021/11/01 01:12:04;;;;;;;18.65;16.30;;;16.60;96.70;;;;;;5077769;28;20062;-81
2021/11/01 01:14:39;;;;;;;19.02;16.08;;;16.60;96.70;;;;;;5078208;28;20048;-81
2021/11/01 01:17:07;;;;;;;22.27;17.30;;;16.60;96.70;;;;;;5080628;28;20040;-81
2021/11/01 01:20:04;;;;;;;21.00;17.67;;;16.60;96.70;;;;;;5077585;28;20067;-81
2021/11/01 01:22:29;;;;;;;22.95;17.80;;;16.60;96.70;;;;;;5074022;28;20050;-81
2021/11/01 01:25:11;;;;;;;23.88;18.52;;;16.60;96.70;;;;;;5077574;28;20481;-81
2021/11/01 01:27:43;;;;;;;22.70;17.05;;;16.60;96.70;;;;;;5075157;28;20426;-81
2021/11/01 01:30:12;;;;;;;22.20;17.33;;;16.60;96.70;;;;;;5078371;28;20141;-81
2021/11/01 01:32:41;;;;;;;21.25;17.27;;;16.60;96.70;;;;;;5079764;28;20044;-81
2021/11/01 01:35:12;;;;;;;20.38;17.23;;;16.60;96.70;;;;;;5076990;28;20101;-82
2021/11/01 01:37:40;;;;;;;22.33;17.52;;;16.60;96.70;;;;;;5076827;28;20547;-81
2021/11/01 01:40:11;;;;;;;22.67;17.90;;;16.60;96.70;;;;;;5079760;28;20043;-81
2021/11/01 01:42:40;;;;;;;21.52;17.02;;;16.50;96.70;;;;;;5078677;28;20097;-81
2021/11/01 01:45:11;;;;;;;20.50;16.42;;;16.40;96.70;;;;;;5075486;28;20050;-81
2021/11/01 01:47:41;;;;;;;19.20;16.20;;;16.40;96.70;;;;;;5065485;28;20045;-81
2021/11/01 01:50:13;;;;;;;20.25;16.98;;;16.40;96.70;;;;;;5078389;28;20489;-80
2021/11/01 01:52:42;;;;;;;20.30;16.63;;;16.40;96.70;;;;;;5075378;28;20332;-81
2021/11/01 01:55:13;;;;;;;18.77;16.13;;;16.40;96.70;;;;;;5072289;28;20040;-80
2021/11/01 01:57:41;;;;;;;18.88;16.35;;;16.40;96.70;;;;;;5073698;28;20101;-81
2021/11/01 02:00:23;;;;;;;18.58;15.63;;;16.40;96.70;;;;;;5073149;28;20040;-81
2021/11/01 02:02:52;;;;;;;18.33;15.45;;;16.40;96.70;;;;;;5067749;28;20070;-85
2021/11/01 02:05:22;;;;;;;17.90;15.50;;;16.40;96.70;;;;;;5083608;28;20071;-87
2021/11/01 02:07:55;;;;;;;17.80;15.10;;;16.30;96.70;;;;;;5080838;28;20040;-86
2021/11/01 02:10:29;;;;;;;18.20;14.63;;;16.30;96.70;;;;;;5080286;28;20072;-87
2021/11/01 02:13:04;;;;;;;18.85;15.25;;;16.30;96.70;;;;;;5081216;28;20123;-87
2021/11/01 02:15:37;;;;;;;18.77;15.93;;;16.30;96.70;;;;;;5078033;28;20132;-86
2021/11/01 02:18:07;;;;;;;18.35;14.70;;;16.20;96.70;;;;;;5065784;28;20063;-86
2021/11/01 02:20:45;;;;;;;16.85;14.55;;;16.20;96.70;;;;;;5076754;28;20534;-85
2021/11/01 02:23:21;;;;;;;19.60;15.93;;;16.10;96.70;;;;;;5082422;28;20048;-86
2021/11/01 02:25:54;;;;;;;19.55;15.20;;;16.10;96.70;;;;;;5081746;28;20564;-87
2021/11/01 02:28:25;;;;;;;18.67;16.52;;;16.10;96.70;;;;;;5084434;28;20044;-87
2021/11/01 02:30:54;;;;;;;21.52;15.93;;;16.00;96.70;;;;;;5082830;28;20051;-86
2021/11/01 02:33:24;;;;;;;19.13;15.43;;;16.00;96.70;;;;;;5084547;28;20048;-87
2021/11/01 02:35:53;;;;;;;17.88;15.30;;;15.90;96.70;;;;;;5084933;28;20076;-87
2021/11/01 02:38:24;;;;;;;18.13;15.15;;;15.90;96.70;;;;;;5083361;28;20043;-85
2021/11/01 02:40:54;;;;;;;20.50;15.93;;;15.90;96.70;;;;;;5068273;28;20142;-86
2021/11/01 02:43:25;;;;;;;18.85;16.17;;;16.00;96.70;;;;;;5084416;28;20036;-86
2021/11/01 02:45:55;;;;;;;18.10;15.77;;;16.00;96.70;;;;;;5082665;28;20060;-85
2021/11/01 02:48:24;;;;;;;19.75;15.98;;;16.00;96.70;;;;;;5067310;28;20044;-84
2021/11/01 02:50:52;;;;;;;20.05;16.33;;;15.90;96.70;;;;;;5078739;28;20073;-86
2021/11/01 02:53:21;;;;;;;19.67;15.95;;;15.90;96.70;;;;;;5082323;28;20047;-86
2021/11/01 02:55:49;;;;;;;18.20;15.82;;;15.90;96.70;;;;;;5084923;28;20497;-85
2021/11/01 02:58:19;;;;;;;21.25;16.63;;;15.90;96.70;;;;;;5065146;28;20047;-86
2021/11/01 03:00:47;;;;;;;20.85;16.90;;;16.00;96.70;;;;;;5086005;28;20095;-87
2021/11/01 03:03:16;;;;;;;20.85;16.77;;;16.00;96.70;;;;;;5070439;28;20044;-86
2021/11/01 03:05:45;;;;;;;19.58;17.23;;;16.00;96.70;;;;;;5084004;28;20059;-87
2021/11/01 03:08:13;;;;;;;20.13;16.90;;;16.00;96.70;;;;;;5081541;28;20135;-86
2021/11/01 03:10:42;;;;;;;19.85;15.40;;;16.00;96.70;;;;;;5083544;28;20489;-87
2021/11/01 03:13:11;;;;;;;19.92;16.13;;;16.00;96.70;;;;;;5083499;28;20074;-86
2021/11/01 03:15:40;;;;;;;21.92;16.92;;;16.10;96.70;;;;;;5066283;28;20493;-88
2021/11/01 03:18:09;;;;;;;19.65;17.35;;;16.10;96.70;;;;;;5084482;28;20518;-87
2021/11/01 03:20:42;;;;;;;19.52;16.75;;;16.10;96.70;;;;;;5083521;28;20036;-85
2021/11/01 03:23:16;;;;;;;21.15;17.05;;;16.10;96.70;;;;;;5079942;28;20071;-87
2021/11/01 03:25:51;;;;;;;21.00;16.67;;;16.00;96.70;;;;;;5079400;28;20044;-87
2021/11/01 03:28:20;;;;;;;19.17;16.48;;;16.00;96.70;;;;;;5079515;28;20040;-87
2021/11/01 03:30:52;;;;;;;19.45;16.35;;;15.90;96.70;;;;;;5071376;28;20040;-87
2021/11/01 03:33:22;;;;;;;19.42;16.17;;;16.10;96.70;;;;;;5083127;28;20446;-86
2021/11/01 03:35:51;;;;;;;19.02;15.30;;;16.10;96.70;;;;;;5079368;28;20054;-87
2021/11/01 03:38:20;;;;;;;19.42;15.50;;;16.10;96.70;;;;;;5078283;28;20044;-87
2021/11/01 03:40:50;;;;;;;20.13;16.45;;;16.00;96.70;;;;;;5066552;28;20182;-86
2021/11/01 03:43:28;;;;;;;19.02;15.88;;;16.00;96.70;;;;;;5080612;28;20577;-86
2021/11/01 03:45:59;;;;;;;19.77;16.77;;;15.90;96.70;;;;;;5080127;28;20067;-87
2021/11/01 03:48:34;;;;;;;19.95;16.10;;;16.00;96.70;;;;;;5080535;28;20069;-87
2021/11/01 03:51:12;;;;;;;20.38;17.58;;;16.00;96.70;;;;;;5066697;28;20473;-86
2021/11/01 03:53:41;;;;;;;20.40;15.48;;;16.00;96.70;;;;;;5061537;28;20047;-85
2021/11/01 03:56:09;;;;;;;19.77;16.20;;;16.00;96.70;;;;;;5082820;28;20033;-87
2021/11/01 03:58:38;;;;;;;21.90;15.93;;;16.00;96.70;;;;;;5079975;28;20047;-87
2021/11/01 04:01:09;;;;;;;17.63;15.07;;;15.90;96.70;;;;;;5079180;28;20060;-87
2021/11/01 04:03:41;;;;;;;18.67;15.77;;;16.00;96.70;;;;;;5080135;28;20085;-81
2021/11/01 04:06:09;;;;;;;18.92;15.02;;;16.00;96.70;;;;;;5079248;28;20173;-81
2021/11/01 04:08:37;;;;;;;18.95;16.27;;;16.00;96.70;;;;;;5060202;28;20103;-80
2021/11/01 04:11:06;;;;;;;17.55;14.93;;;16.00;96.70;;;;;;5055494;28;20058;-80
2021/11/01 04:13:36;;;;;;;18.08;15.32;;;16.00;96.70;;;;;;5078765;28;20055;-80
2021/11/01 04:16:14;;;;;;;16.92;14.40;;;16.00;96.70;;;;;;5080215;28;20036;-81
2021/11/01 04:21:19;;;;;;;15.73;13.53;;;15.90;96.70;;;;;;5081011;28;20051;-80
2021/11/01 04:23:48;;;;;;;17.80;14.48;;;15.90;96.70;;;;;;5081723;28;20620;-81
2021/11/01 04:26:18;;;;;;;15.18;12.52;;;15.90;96.70;;;;;;5079032;28;20048;-81
2021/11/01 04:28:52;;;;;;;14.55;12.45;;;15.90;96.70;;;;;;5066211;28;20059;-82
2021/11/01 04:31:36;;;;;;;14.20;12.10;;;15.90;96.70;;;;;;5076787;28;20044;-81
2021/11/01 04:34:27;;;;;;;14.00;12.10;;;15.90;96.70;;;;;;5078269;28;20039;-81
2021/11/01 04:36:57;;;;;;;14.15;12.32;;;15.90;96.70;;;;;;5062659;28;20074;-80
2021/11/01 04:52:54;;;;;;;14.63;12.20;;;15.80;96.70;;;;;;5076674;28;20630;-81
2021/11/01 04:53:30;;;;;;;14.77;12.05;;;15.80;96.70;;;;;;5072539;28;20052;-81
2021/11/01 04:55:58;;;;;;;13.80;11.45;;;15.80;96.70;;;;;;5060158;28;20074;-80
2021/11/01 04:58:28;;;;;;;14.13;11.57;;;15.80;96.70;;;;;;5077325;28;20391;-81
2021/11/01 05:00:56;;;;;;;13.23;11.82;;;15.80;96.70;;;;;;5079886;28;20497;-81
2021/11/01 05:05:59;;;;;;;14.55;12.55;;;15.80;96.70;;;;;;5079918;28;20048;-88
2021/11/01 05:08:39;;;;;;;13.98;11.93;;;15.80;96.70;;;;;;5079830;28;20131;-86
2021/11/01 05:13:55;;;;;;;14.23;11.80;;;15.80;96.70;;;;;;5074980;28;20048;-86
2021/11/01 05:19:20;;;;;;;17.38;13.02;;;15.70;96.70;;;;;;5081442;28;20054;-87
2021/11/01 05:24:29;;;;;;;15.38;12.73;;;15.80;96.70;;;;;;5072770;28;20044;-80
2021/11/01 05:29:51;;;;;;;15.75;12.30;;;15.80;96.70;;;;;;5076669;28;20509;-80
2021/11/01 05:32:27;;;;;;;12.95;11.48;;;15.80;96.70;;;;;;5079046;28;20071;-80
2021/11/01 05:34:55;;;;;;;12.32;10.75;;;15.80;96.70;;;;;;5079541;28;20047;-80
2021/11/01 05:37:25;;;;;;;12.45;11.05;;;15.80;96.70;;;;;;5074913;28;20058;-80
2021/11/01 05:39:54;;;;;;;14.85;11.80;;;15.80;96.70;;;;;;5072968;28;20052;-80
2021/11/01 05:42:23;;;;;;;12.40;11.00;;;15.80;96.70;;;;;;5060071;28;20098;-81
2021/11/01 05:44:52;;;;;;;12.85;10.90;;;15.80;96.70;;;;;;5078014;28;20052;-80
2021/11/01 05:47:21;;;;;;;13.98;10.55;;;15.80;96.70;;;;;;5059035;28;20051;-80
2021/11/01 05:49:50;;;;;;;14.15;10.25;;;15.70;96.70;;;;;;5079946;28;20091;-80
2021/11/01 05:52:25;;;;;;;12.20;10.80;;;15.70;96.70;;;;;;5074931;28;20052;-79
2021/11/01 05:55:03;;;;;;;11.95;10.00;;;15.70;96.70;;;;;;5058359;28;20561;-80
2021/11/01 06:03:16;;;;;;;11.82;10.15;;;15.80;96.70;;;;;;5079082;28;20049;-81
2021/11/01 06:13:32;;;;;;;12.45;10.35;;;15.70;96.70;;;;;;5080047;28;20085;-81
2021/11/01 06:16:02;;;;;;;11.05;9.77;;;15.70;96.70;;;;;;5081100;28;20036;-81
2021/11/01 06:18:38;;;;;;;12.18;10.27;;;15.70;96.70;;;;;;5083121;28;20109;-80
2021/11/01 06:21:12;;;;;;;11.60;10.32;;;15.70;96.70;;;;;;5075444;28;20555;-81
2021/11/01 06:23:41;;;;;;;13.18;10.73;;;15.70;96.70;;;;;;5081008;28;20055;-81
2021/11/01 06:26:11;;;;;;;14.77;11.50;;;15.70;96.70;;;;;;5061306;28;20067;-80
2021/11/01 06:28:43;;;;;;;15.57;11.93;;;15.70;96.70;;;;;;5081687;28;20139;-81
2021/11/01 06:31:18;;;;;;;13.75;11.77;;;15.70;96.70;;;;;;5077506;28;20044;-81
2021/11/01 06:42:00;;;;;;;14.65;12.05;;;15.80;96.70;;;;;;5090973;28;19924;-81
2021/11/01 06:44:58;;;;;;;14.15;11.68;;;15.80;96.70;;;;;;5072708;28;20113;-81
2021/11/01 06:50:37;;;;;;;12.85;11.23;;;15.80;96.70;;;;;;5063529;28;20044;-81
2021/11/01 06:53:34;;;;;;;13.18;11.73;;;15.90;96.70;;;;;;5082123;28;20477;-80
2021/11/01 06:58:36;;;;;;;12.73;11.43;;;16.00;96.70;;;;;;5074768;28;20098;-81
2021/11/01 07:15:09;;;;;;;11.23;10.00;;;16.20;96.70;;;;;;5080647;28;20030;-81
2021/11/01 07:17:43;;;;;;;12.57;11.02;;;16.20;96.70;;;;;;5060501;28;20173;-80
2021/11/01 07:20:26;;;;;;;12.55;10.32;;;16.20;96.70;;;;;;5076485;28;20036;-81
2021/11/01 08:21:44;;;;;;;11.70;9.85;;;16.40;96.70;;;;;;5078731;28;20162;-81
2021/11/01 08:27:52;;;;;;;10.68;9.57;;;16.40;96.70;;;;;;5080282;28;20048;-81
2021/11/01 08:51:59;;;;;;;10.75;9.65;;;16.80;96.70;;;;;;5077538;28;20036;-83
2021/11/01 09:18:43;;;;;;;10.35;9.23;;;16.90;96.70;;;;;;5075033;28;20068;-77
2021/11/01 09:27:05;;;;;;;13.85;11.00;;;16.80;96.70;;;;;;5080124;28;20097;-80
2021/11/01 09:43:15;;;;;;;12.55;11.23;;;16.90;96.70;;;;;;5074994;28;20482;-85
2021/11/01 09:45:46;;;;;;;12.50;10.30;;;16.90;96.70;;;;;;5078667;28;20272;-86
2021/11/01 09:48:16;;;;;;;11.38;10.20;;;17.00;96.70;;;;;;5074654;28;20046;-81
2021/11/01 09:50:44;;;;;;;11.32;9.45;;;17.00;96.70;;;;;;5075145;28;20677;-80
2021/11/01 09:53:18;;;;;;;11.85;9.48;;;17.00;96.70;;;;;;5078245;28;20044;-79
2021/11/01 09:55:55;;;;;;;10.25;9.25;;;17.10;96.70;;;;;;5076043;28;20050;-78
2021/11/01 10:01:14;;;;;;;11.68;9.98;;;17.20;96.70;;;;;;5080188;28;20417;-84
2021/11/01 10:03:45;;;;;;;11.65;9.82;;;17.10;96.70;;;;;;5075374;28;20068;-82
2021/11/01 10:06:32;;;;;;;12.43;9.70;;;17.20;96.70;;;;;;5078173;28;20032;-89
2021/11/01 10:09:05;;;;;;;11.73;9.65;;;17.20;96.70;;;;;;5083101;28;20047;-85
2021/11/01 10:11:39;;;;;;;11.57;9.50;;;17.30;96.70;;;;;;5077151;28;20043;-83
2021/11/01 10:14:10;;;;;;;11.32;10.23;;;17.30;96.70;;;;;;5080753;28;20143;-86
2021/11/01 10:19:30;;;;;;;10.35;9.32;;;17.40;96.70;;;;;;5083238;28;20042;-88
2021/11/01 10:22:01;;;;;;;10.60;9.50;;;17.40;96.70;;;;;;5076384;28;20056;-86
2021/11/01 10:24:40;;;;;;;11.52;9.98;;;17.50;96.70;;;;;;5065443;28;20432;-87
2021/11/01 10:27:10;;;;;;;11.52;10.32;;;17.50;96.70;;;;;;5063233;28;20040;-86
2021/11/01 10:29:52;;;;;;;10.98;9.88;;;17.40;96.70;;;;;;5079310;28;20036;-86
2021/11/01 10:32:37;;;;;;;12.27;10.40;;;17.40;96.70;;;;;;5079221;28;20056;-82
2021/11/01 10:35:16;;;;;;;11.45;10.25;;;17.30;96.70;;;;;;5061286;28;20583;-78
2021/11/01 10:38:35;;;;;;;13.55;12.07;;;17.40;96.70;;;;;;5064579;28;20504;-80
2021/11/01 10:41:22;;;;;;;13.70;11.90;;;17.40;96.70;;;;;;5077314;28;20047;-80
2021/11/01 10:44:08;;;;;;;13.25;10.73;;;17.40;96.70;;;;;;5078642;28;20113;-82
2021/11/01 22:19:53;;;;;;;11.82;1.17;;;15.90;96.70;;;;;;5074579;28;20493;-90
2021/11/01 22:22:48;;;;;;;3.60;0.55;;;15.90;96.70;;;;;;5078621;28;20517;-91
2021/11/01 22:33:13;;;;;;;3.45;0.60;;;16.10;96.70;;;;;;5077161;28;20512;-88
2021/11/01 22:41:30;;;;;;;1.48;0.50;;;16.30;96.70;;;;;;5070892;28;20044;-90
2021/11/01 22:57:36;;;;;;;3.40;0.75;;;16.40;96.70;;;;;;5070777;28;20176;-89
2021/11/01 23:00:16;;;;;;;6.55;1.30;;;16.30;96.70;;;;;;5076051;28;20055;-89
2021/11/01 23:02:46;;;;;;;2.83;0.57;;;16.30;96.70;;;;;;5080472;28;20048;-88
2021/11/01 23:05:33;;;;;;;2.42;0.70;;;16.20;96.70;;;;;;5079452;28;20422;-90
2021/11/01 23:33:09;;;;;;;4.03;1.30;;;15.80;96.70;;;;;;5065566;28;20045;-87
2021/11/01 23:35:38;;;;;;;2.85;0.90;;;15.80;96.70;;;;;;5048719;28;20133;-89
2021/11/01 23:38:06;;;;;;;2.58;1.00;;;15.80;96.70;;;;;;5049809;28;20136;-89
2021/11/01 23:40:34;;;;;;;3.00;0.90;;;15.80;96.70;;;;;;5081242;28;20127;-90
2021/11/01 23:43:03;;;;;;;2.17;0.77;;;15.80;96.70;;;;;;5048091;28;20045;-88
2021/11/01 23:45:33;;;;;;;4.28;1.15;;;15.80;96.70;;;;;;5049307;28;20090;-88
2021/11/01 23:48:02;;;;;;;4.25;1.40;;;15.80;96.70;;;;;;5066288;28;20064;-87
2021/11/01 23:50:34;;;;;;;5.82;1.38;;;15.80;96.70;;;;;;5047235;28;20044;-88
2021/11/01 23:53:11;;;;;;;6.50;2.25;;;15.80;96.70;;;;;;5050217;28;20062;-89
2021/11/01 23:55:40;;;;;;;9.43;3.85;;;15.70;96.70;;;;;;5065482;28;20459;-89
2021/11/01 23:58:08;;;;;;;7.88;3.35;;;15.70;96.70;;;;;;5063316;28;20139;-89
